Time;durP1;ratioP1;P1;durP2;ratioP2;P2;SDS_P1;SDS_P2;PMS_P1;PMS_P2;Temp;Humidity;BMP_temperature;BMP_pressure;BME280_temperature;BME280_humidity;BME280_pressure;Samples;Min_cycle;Max_cycle;Signal;HPM_P1;HPM_P2
2023/05/26 00:01:19;;;;;;;17.15;9.93;;;17.90;99.90;;;;;;5052980;28;20021;-82
2023/05/26 00:03:44;;;;;;;17.33;10.30;;;17.90;99.90;;;;;;5037122;28;20395;-82
2023/05/26 00:06:13;;;;;;;15.73;9.90;;;17.90;99.90;;;;;;5047152;28;20032;-81
2023/05/26 00:08:39;;;;;;;21.40;10.27;;;18.00;99.90;;;;;;5054053;28;20384;-82
2023/05/26 00:11:05;;;;;;;13.20;9.70;;;18.00;99.90;;;;;;5054019;28;20025;-82
2023/05/26 00:13:31;;;;;;;14.98;10.13;;;17.90;99.90;;;;;;5053683;28;20049;-82
2023/05/26 00:15:57;;;;;;;18.95;9.07;;;17.90;99.90;;;;;;5037831;28;20022;-82
2023/05/26 00:18:26;;;;;;;14.93;9.85;;;17.80;99.90;;;;;;5053943;28;20048;-82
2023/05/26 00:20:53;;;;;;;19.48;9.50;;;17.80;99.90;;;;;;5053415;28;20094;-82
2023/05/26 00:23:18;;;;;;;20.70;9.85;;;17.90;99.90;;;;;;5053926;28;20470;-83
2023/05/26 00:25:44;;;;;;;20.65;10.75;;;17.80;99.90;;;;;;5052540;28;20109;-82
2023/05/26 00:28:10;;;;;;;16.13;9.98;;;17.90;99.90;;;;;;5053750;28;20086;-82
2023/05/26 00:30:36;;;;;;;20.02;10.63;;;17.80;99.90;;;;;;5054044;28;20322;-82
2023/05/26 00:33:02;;;;;;;16.58;9.75;;;17.80;99.90;;;;;;5052284;28;20132;-82
2023/05/26 00:35:28;;;;;;;19.38;10.93;;;17.80;99.90;;;;;;5033792;28;20030;-82
2023/05/26 00:37:53;;;;;;;15.85;10.05;;;17.70;99.90;;;;;;5052149;28;20048;-82
2023/05/26 00:40:19;;;;;;;15.70;10.18;;;17.70;99.90;;;;;;5053840;28;20025;-82
2023/05/26 00:42:45;;;;;;;21.52;10.35;;;17.60;99.90;;;;;;5053378;28;20056;-83
2023/05/26 00:45:11;;;;;;;18.13;10.18;;;17.70;99.90;;;;;;5053934;28;20029;-81
2023/05/26 00:47:37;;;;;;;15.85;10.32;;;17.60;99.90;;;;;;5035374;28;20037;-82
2023/05/26 00:50:04;;;;;;;16.50;9.68;;;17.60;99.90;;;;;;5033405;28;20033;-82
2023/05/26 00:52:30;;;;;;;17.55;10.75;;;17.60;99.90;;;;;;5034041;28;20360;-82
2023/05/26 00:54:56;;;;;;;22.55;10.93;;;17.60;99.90;;;;;;5031701;28;20152;-82
2023/05/26 00:57:22;;;;;;;17.63;10.52;;;17.50;99.90;;;;;;5031946;28;20064;-82
2023/05/26 00:59:49;;;;;;;21.92;10.43;;;17.50;99.90;;;;;;5037500;28;20036;-81
2023/05/26 01:02:15;;;;;;;19.13;9.98;;;17.60;99.90;;;;;;5033710;28;20033;-82
2023/05/26 01:04:41;;;;;;;17.67;10.60;;;17.60;99.90;;;;;;5060856;28;20144;-82
2023/05/26 01:07:08;;;;;;;15.02;11.25;;;17.50;99.90;;;;;;5035391;28;20057;-81
2023/05/26 01:09:34;;;;;;;24.80;11.52;;;17.60;99.90;;;;;;5032978;28;20471;-81
2023/05/26 01:12:10;;;;;;;14.50;9.82;;;17.60;99.90;;;;;;5034015;28;20037;-82
2023/05/26 01:14:45;;;;;;;16.95;10.23;;;17.60;99.90;;;;;;5035718;28;20371;-82
2023/05/26 01:17:24;;;;;;;18.13;10.60;;;17.60;99.90;;;;;;5029414;28;20112;-81
2023/05/26 01:20:11;;;;;;;14.88;10.30;;;17.70;99.90;;;;;;5037205;28;20032;-82
2023/05/26 01:23:05;;;;;;;18.25;11.27;;;17.70;99.90;;;;;;5035349;28;20034;-82
2023/05/26 01:26:02;;;;;;;18.98;11.13;;;17.60;99.90;;;;;;5031735;28;20029;-82
2023/05/26 01:28:29;;;;;;;16.73;10.57;;;17.70;99.90;;;;;;5031781;28;20087;-82
2023/05/26 01:30:57;;;;;;;18.70;11.02;;;17.70;99.90;;;;;;5038538;28;20028;-82
2023/05/26 01:33:23;;;;;;;20.02;10.70;;;17.70;99.90;;;;;;5035429;28;20120;-83
2023/05/26 01:35:49;;;;;;;24.40;11.30;;;17.70;99.90;;;;;;5033685;28;20117;-83
2023/05/26 01:38:15;;;;;;;24.25;10.93;;;17.70;99.90;;;;;;5037948;28;20107;-82
2023/05/26 01:40:43;;;;;;;20.33;10.98;;;17.70;99.90;;;;;;5032295;28;20116;-83
2023/05/26 01:43:15;;;;;;;17.00;11.20;;;17.70;99.90;;;;;;5036074;28;20029;-82
2023/05/26 01:45:54;;;;;;;24.50;11.25;;;17.70;99.90;;;;;;5033051;28;20021;-83
2023/05/26 01:48:22;;;;;;;17.00;10.98;;;17.70;99.90;;;;;;5036980;28;20113;-82
2023/05/26 01:50:55;;;;;;;18.40;11.07;;;17.70;99.90;;;;;;5038381;28;20037;-82
2023/05/26 01:53:24;;;;;;;19.42;10.43;;;17.70;99.90;;;;;;5037775;28;20120;-82
2023/05/26 01:55:54;;;;;;;18.02;11.70;;;17.70;99.90;;;;;;5036992;28;20048;-81
2023/05/26 01:58:22;;;;;;;16.10;10.80;;;17.70;99.90;;;;;;5034287;28;20488;-81
2023/05/26 02:00:48;;;;;;;16.40;10.63;;;17.80;99.90;;;;;;5035811;28;20026;-82
2023/05/26 02:03:15;;;;;;;16.00;10.65;;;17.70;99.90;;;;;;5036545;28;20044;-81
2023/05/26 02:05:41;;;;;;;18.50;10.77;;;17.70;99.90;;;;;;5039409;28;20063;-82
2023/05/26 02:08:10;;;;;;;16.33;10.80;;;17.70;99.90;;;;;;5036401;28;20416;-82
2023/05/26 02:10:37;;;;;;;17.10;10.85;;;17.70;99.90;;;;;;5036036;28;20547;-82
2023/05/26 02:13:02;;;;;;;19.25;11.77;;;17.60;99.90;;;;;;5035663;28;20380;-80
2023/05/26 02:15:29;;;;;;;15.38;10.23;;;17.60;99.90;;;;;;5040403;28;20026;-83
2023/05/26 02:17:57;;;;;;;18.33;11.95;;;17.60;99.90;;;;;;5038083;28;20045;-82
2023/05/26 02:20:25;;;;;;;16.92;11.00;;;17.60;99.90;;;;;;5035478;28;20455;-81
2023/05/26 02:22:51;;;;;;;16.33;11.20;;;17.60;99.90;;;;;;5040268;28;20082;-82
2023/05/26 02:25:17;;;;;;;19.00;11.43;;;17.60;99.90;;;;;;5038509;28;20104;-84
2023/05/26 02:27:43;;;;;;;15.23;10.65;;;17.60;99.90;;;;;;5035009;28;20145;-82
2023/05/26 02:30:09;;;;;;;17.90;11.13;;;17.60;99.90;;;;;;5035539;28;20033;-82
2023/05/26 02:32:36;;;;;;;19.40;10.63;;;17.60;99.90;;;;;;5039540;28;20029;-82
2023/05/26 02:35:03;;;;;;;17.17;11.48;;;17.60;99.90;;;;;;5037989;28;20037;-82
2023/05/26 02:37:30;;;;;;;16.13;10.73;;;17.60;99.90;;;;;;5034116;28;20046;-82
2023/05/26 02:39:56;;;;;;;19.48;11.32;;;17.60;99.90;;;;;;5037794;28;20551;-82
2023/05/26 02:42:22;;;;;;;19.20;10.57;;;17.50;99.90;;;;;;5041138;28;20116;-82
2023/05/26 02:44:48;;;;;;;19.05;12.13;;;17.60;99.90;;;;;;5038165;28;20033;-82
2023/05/26 02:47:14;;;;;;;16.83;11.77;;;17.50;99.90;;;;;;5036361;28;20075;-82
2023/05/26 02:49:40;;;;;;;19.15;12.15;;;17.50;99.90;;;;;;5035178;28;20079;-81
2023/05/26 02:52:06;;;;;;;18.05;10.80;;;17.50;99.90;;;;;;5035480;28;20049;-81
2023/05/26 02:54:32;;;;;;;16.98;11.05;;;17.40;99.90;;;;;;5038161;28;20064;-82
2023/05/26 02:56:58;;;;;;;16.83;10.90;;;17.40;99.90;;;;;;5038943;28;20019;-82
2023/05/26 02:59:24;;;;;;;22.00;12.20;;;17.40;99.90;;;;;;5035012;28;20034;-82
2023/05/26 03:01:50;;;;;;;18.05;11.70;;;17.40;99.90;;;;;;5046739;28;20079;-83
2023/05/26 03:04:16;;;;;;;18.42;11.32;;;17.40;99.90;;;;;;5036995;28;20448;-82
2023/05/26 03:06:41;;;;;;;22.70;11.68;;;17.40;99.90;;;;;;5055490;28;20021;-82
2023/05/26 03:09:07;;;;;;;19.85;12.40;;;17.40;99.90;;;;;;5055256;28;20036;-82
2023/05/26 03:11:33;;;;;;;19.08;11.77;;;17.40;99.90;;;;;;5055132;28;20598;-82
2023/05/26 03:14:00;;;;;;;20.00;12.20;;;17.40;99.90;;;;;;5054832;28;20055;-82
2023/05/26 03:16:26;;;;;;;17.88;11.75;;;17.40;99.90;;;;;;5044914;28;20036;-81
2023/05/26 03:18:52;;;;;;;20.90;11.90;;;17.40;99.90;;;;;;5035631;28;20041;-81
2023/05/26 03:21:18;;;;;;;21.77;12.50;;;17.30;99.90;;;;;;5038533;28;20086;-83
2023/05/26 03:23:44;;;;;;;19.42;11.75;;;17.30;99.90;;;;;;5035686;28;20025;-82
2023/05/26 03:26:10;;;;;;;21.05;12.85;;;17.30;99.90;;;;;;5034926;28;20029;-82
2023/05/26 03:28:36;;;;;;;25.77;12.65;;;17.30;99.90;;;;;;5032871;28;20439;-81
2023/05/26 03:31:03;;;;;;;22.83;12.32;;;17.30;99.90;;;;;;5039959;28;20033;-82
2023/05/26 03:33:31;;;;;;;20.42;12.05;;;17.40;99.90;;;;;;5036106;28;20492;-82
2023/05/26 03:36:00;;;;;;;19.20;12.57;;;17.40;99.90;;;;;;5045990;28;20087;-82
2023/05/26 03:38:26;;;;;;;21.10;12.80;;;17.40;99.90;;;;;;5042028;28;20483;-81
2023/05/26 03:40:52;;;;;;;20.58;12.02;;;17.40;99.90;;;;;;5047583;28;20071;-83
2023/05/26 03:43:18;;;;;;;21.20;12.90;;;17.40;99.90;;;;;;5033993;28;20033;-82
2023/05/26 03:45:44;;;;;;;22.70;12.55;;;17.40;99.90;;;;;;5038702;28;20105;-83
2023/05/26 03:48:12;;;;;;;19.67;12.15;;;17.40;99.90;;;;;;5037052;28;20048;-83
2023/05/26 03:50:43;;;;;;;25.98;12.32;;;17.40;99.90;;;;;;5033437;28;20075;-83
2023/05/26 03:53:09;;;;;;;18.57;12.93;;;17.50;99.90;;;;;;5034601;28;20021;-86
2023/05/26 03:55:36;;;;;;;20.80;12.48;;;17.40;99.90;;;;;;5057764;28;20033;-81
2023/05/26 03:58:02;;;;;;;22.25;12.45;;;17.50;99.90;;;;;;5036554;28;20033;-81
2023/05/26 04:00:31;;;;;;;22.38;12.10;;;17.50;99.90;;;;;;5053417;28;20025;-82
2023/05/26 04:02:56;;;;;;;18.67;13.15;;;17.60;99.90;;;;;;5034331;28;20025;-81
2023/05/26 04:05:22;;;;;;;19.60;12.70;;;17.50;99.90;;;;;;5032199;28;20036;-81
2023/05/26 04:07:49;;;;;;;19.02;12.15;;;17.60;99.90;;;;;;5038906;28;20036;-83
2023/05/26 04:10:15;;;;;;;18.27;12.02;;;17.60;99.90;;;;;;5031896;28;20567;-81
2023/05/26 04:12:41;;;;;;;23.52;13.35;;;17.60;99.90;;;;;;5034017;28;20034;-81
2023/05/26 04:15:09;;;;;;;23.13;13.48;;;17.60;99.90;;;;;;5032380;28;20082;-82
2023/05/26 04:17:35;;;;;;;20.88;12.73;;;17.60;99.90;;;;;;5037137;28;20488;-82
2023/05/26 04:20:05;;;;;;;19.27;12.07;;;17.50;99.90;;;;;;5036720;28;20063;-81
2023/05/26 04:22:31;;;;;;;18.40;11.93;;;17.60;99.90;;;;;;5033431;28;20032;-82
2023/05/26 04:24:57;;;;;;;18.65;12.82;;;17.60;99.90;;;;;;5031931;28;20025;-81
2023/05/26 04:27:24;;;;;;;16.83;11.23;;;17.60;99.90;;;;;;5031802;28;20031;-82
2023/05/26 04:29:50;;;;;;;19.67;12.40;;;17.50;99.90;;;;;;5061074;28;20025;-80
2023/05/26 04:32:16;;;;;;;18.48;12.38;;;17.50;99.90;;;;;;5031490;28;20486;-81
2023/05/26 04:34:44;;;;;;;18.98;11.77;;;17.50;99.90;;;;;;5041683;28;20033;-80
2023/05/26 04:37:10;;;;;;;21.10;11.63;;;17.50;99.90;;;;;;5052177;28;20045;-82
2023/05/26 04:39:36;;;;;;;19.38;11.85;;;17.50;99.90;;;;;;5051696;28;20091;-80
2023/05/26 04:42:03;;;;;;;21.10;13.10;;;17.50;99.90;;;;;;5052400;28;20025;-81
2023/05/26 04:44:30;;;;;;;21.15;11.70;;;17.50;99.90;;;;;;5053404;28;20426;-80
2023/05/26 04:46:57;;;;;;;20.83;12.38;;;17.50;99.90;;;;;;5053222;28;20041;-81
2023/05/26 04:49:23;;;;;;;17.92;12.45;;;17.50;99.90;;;;;;5052181;28;20391;-81
2023/05/26 04:51:54;;;;;;;21.77;12.57;;;17.50;99.90;;;;;;5041729;28;20029;-82
2023/05/26 04:54:20;;;;;;;20.07;12.57;;;17.60;99.90;;;;;;5041918;28;20060;-81
2023/05/26 04:56:45;;;;;;;19.52;12.30;;;17.60;99.90;;;;;;5052228;28;20067;-82
2023/05/26 04:59:12;;;;;;;17.92;11.75;;;17.60;99.90;;;;;;5052017;28;20032;-81
2023/05/26 05:01:38;;;;;;;20.33;12.63;;;17.60;99.90;;;;;;5051882;28;20033;-80
2023/05/26 05:04:05;;;;;;;22.77;12.73;;;17.70;99.90;;;;;;5052415;28;20036;-81
2023/05/26 05:06:30;;;;;;;18.92;12.43;;;17.70;99.90;;;;;;5052016;28;20029;-82
2023/05/26 05:08:56;;;;;;;19.90;12.40;;;17.70;99.90;;;;;;5052037;28;20494;-81
2023/05/26 05:11:22;;;;;;;17.52;13.25;;;17.70;99.90;;;;;;5052067;28;20382;-83
2023/05/26 05:13:48;;;;;;;21.30;12.80;;;17.70;99.90;;;;;;5051805;28;20032;-84
2023/05/26 05:16:13;;;;;;;18.38;13.05;;;17.70;99.90;;;;;;5052051;28;20464;-83
2023/05/26 05:18:39;;;;;;;19.25;12.65;;;17.70;99.90;;;;;;5053226;28;20040;-84
2023/05/26 05:21:05;;;;;;;19.00;12.77;;;17.70;99.90;;;;;;5054367;28;20035;-84
2023/05/26 05:23:34;;;;;;;21.15;12.30;;;17.70;99.90;;;;;;5057416;28;20094;-83
2023/05/26 05:26:00;;;;;;;20.27;11.50;;;17.80;99.90;;;;;;5055835;28;20048;-83
2023/05/26 05:28:26;;;;;;;19.58;12.27;;;17.80;99.90;;;;;;5055464;28;20090;-84
2023/05/26 05:30:52;;;;;;;22.67;12.38;;;17.80;99.90;;;;;;5055788;28;20029;-83
2023/05/26 05:33:18;;;;;;;19.42;12.80;;;17.80;99.90;;;;;;5055649;28;20033;-83
2023/05/26 05:35:47;;;;;;;20.48;12.80;;;17.80;99.90;;;;;;5050626;28;20032;-84
2023/05/26 05:38:13;;;;;;;20.70;11.88;;;17.80;99.90;;;;;;5037645;28;20494;-84
2023/05/26 05:40:39;;;;;;;17.33;12.02;;;17.80;99.90;;;;;;5055403;28;20028;-84
2023/05/26 05:43:05;;;;;;;22.65;12.60;;;17.80;99.90;;;;;;5055295;28;20029;-84
2023/05/26 05:45:31;;;;;;;24.40;13.48;;;17.80;99.90;;;;;;5055681;28;20054;-83
2023/05/26 05:47:56;;;;;;;20.33;13.55;;;17.80;99.90;;;;;;5056489;28;20031;-83
2023/05/26 05:50:23;;;;;;;17.10;12.32;;;17.80;99.90;;;;;;5056370;28;20028;-82
2023/05/26 05:52:49;;;;;;;21.48;13.70;;;17.80;99.90;;;;;;5043572;28;20110;-83
2023/05/26 05:55:15;;;;;;;23.23;13.52;;;17.80;99.90;;;;;;5055643;28;20039;-82
2023/05/26 05:57:41;;;;;;;21.42;13.88;;;17.80;99.90;;;;;;5042287;28;20033;-82
2023/05/26 06:00:09;;;;;;;24.63;14.13;;;17.80;99.90;;;;;;5035219;28;20060;-83
2023/05/26 06:02:36;;;;;;;25.27;14.55;;;17.80;99.90;;;;;;5047137;28;20021;-82
2023/05/26 06:05:02;;;;;;;25.90;14.13;;;17.70;99.90;;;;;;5052066;28;20121;-82
2023/05/26 06:07:28;;;;;;;24.52;14.10;;;17.70;99.90;;;;;;5055077;28;20028;-84
2023/05/26 06:09:54;;;;;;;23.17;14.55;;;17.70;99.90;;;;;;5056051;28;20029;-82
2023/05/26 06:12:19;;;;;;;26.08;14.10;;;17.70;99.90;;;;;;5054671;28;20475;-82
2023/05/26 06:14:45;;;;;;;23.05;14.20;;;17.70;99.90;;;;;;5051953;28;20032;-83
2023/05/26 06:17:11;;;;;;;22.95;14.40;;;17.70;99.90;;;;;;5055507;28;20076;-82
2023/05/26 06:19:37;;;;;;;27.02;14.55;;;17.70;99.90;;;;;;5055575;28;20072;-83
2023/05/26 06:22:03;;;;;;;25.98;15.02;;;17.60;99.90;;;;;;5054797;28;20032;-82
2023/05/26 06:24:28;;;;;;;23.63;14.70;;;17.60;99.90;;;;;;5054160;28;20029;-83
2023/05/26 06:26:54;;;;;;;23.20;14.73;;;17.60;99.90;;;;;;5054466;28;20025;-82
2023/05/26 06:29:20;;;;;;;24.17;15.25;;;17.60;99.90;;;;;;5054415;28;20033;-82
2023/05/26 06:31:45;;;;;;;25.83;15.60;;;17.60;99.90;;;;;;5055441;28;20086;-82
2023/05/26 06:34:11;;;;;;;28.35;15.52;;;17.60;99.90;;;;;;5054527;28;20119;-83
2023/05/26 06:36:37;;;;;;;24.58;15.98;;;17.70;99.90;;;;;;5054308;28;20029;-84
2023/05/26 06:39:03;;;;;;;27.33;15.32;;;17.60;99.90;;;;;;5054189;28;20044;-83
2023/05/26 06:41:28;;;;;;;31.40;16.00;;;17.70;99.90;;;;;;5055613;28;20035;-83
2023/05/26 06:43:55;;;;;;;24.60;15.80;;;17.60;99.90;;;;;;5055108;28;20028;-84
2023/05/26 06:46:20;;;;;;;32.88;16.45;;;17.50;99.90;;;;;;5044429;28;20029;-83
2023/05/26 06:48:46;;;;;;;30.27;15.77;;;17.60;99.90;;;;;;5040951;28;20040;-83
2023/05/26 06:51:12;;;;;;;35.35;17.50;;;17.50;99.90;;;;;;5052065;28;20033;-82
2023/05/26 06:53:38;;;;;;;27.05;15.75;;;17.60;99.90;;;;;;5053817;28;20029;-82
2023/05/26 06:56:08;;;;;;;29.83;17.95;;;17.50;99.90;;;;;;5054002;28;20021;-82
2023/05/26 06:58:34;;;;;;;37.90;18.95;;;17.50;99.90;;;;;;5054871;28;20537;-81
2023/05/26 07:01:01;;;;;;;35.40;20.92;;;17.70;99.90;;;;;;5039141;28;20037;-81
2023/05/26 07:03:28;;;;;;;35.42;20.05;;;18.00;99.90;;;;;;5034921;28;20490;-81
2023/05/26 07:05:57;;;;;;;33.28;20.25;;;18.10;99.90;;;;;;5042490;28;20438;-83
2023/05/26 07:08:24;;;;;;;33.47;18.17;;;18.10;99.90;;;;;;5053826;28;20033;-83
2023/05/26 07:10:50;;;;;;;26.33;16.98;;;18.10;99.90;;;;;;5050467;28;20025;-82
2023/05/26 07:13:15;;;;;;;25.17;16.45;;;18.20;99.90;;;;;;5035362;28;20041;-83
2023/05/26 07:15:42;;;;;;;27.73;16.95;;;18.50;99.90;;;;;;5054278;28;20033;-82
2023/05/26 07:18:08;;;;;;;20.98;14.75;;;;;;;;;;5054891;28;20115;-82
2023/05/26 07:20:34;;;;;;;24.73;14.38;;;19.00;99.90;;;;;;5054171;28;20025;-83
2023/05/26 07:23:00;;;;;;;24.52;16.23;;;19.10;99.90;;;;;;5053610;28;20491;-83
2023/05/26 07:25:26;;;;;;;23.30;14.32;;;19.10;99.90;;;;;;5053508;28;20057;-83
2023/05/26 07:27:52;;;;;;;24.33;15.30;;;19.30;99.90;;;;;;5054207;28;20060;-82
2023/05/26 07:30:18;;;;;;;24.40;15.10;;;19.50;99.90;;;;;;5053445;28;20025;-83
2023/05/26 07:32:45;;;;;;;26.42;15.15;;;;;;;;;;5054778;28;20025;-83
2023/05/26 07:35:11;;;;;;;21.33;14.35;;;19.80;99.90;;;;;;5052819;28;20111;-83
2023/05/26 07:37:38;;;;;;;22.52;13.88;;;19.70;99.90;;;;;;5053232;28;20128;-80
2023/05/26 07:40:04;;;;;;;22.35;14.98;;;19.70;99.90;;;;;;5054610;28;20025;-78
2023/05/26 07:42:31;;;;;;;21.70;14.00;;;19.70;99.90;;;;;;5053493;28;20021;-80
2023/05/26 07:44:56;;;;;;;20.65;13.85;;;19.90;99.90;;;;;;5054690;28;20056;-79
2023/05/26 07:47:23;;;;;;;19.85;13.95;;;19.80;99.90;;;;;;5054427;28;20122;-80
2023/05/26 07:49:49;;;;;;;21.88;14.63;;;20.00;99.90;;;;;;5053783;28;20530;-80
2023/05/26 07:52:15;;;;;;;24.27;16.70;;;20.00;99.90;;;;;;5040300;28;20025;-80
2023/05/26 07:54:41;;;;;;;27.10;14.20;;;20.10;99.90;;;;;;5051340;28;20063;-81
2023/05/26 07:57:07;;;;;;;25.67;15.00;;;20.10;99.90;;;;;;5054484;28;20455;-81
2023/05/26 07:59:33;;;;;;;20.00;13.23;;;20.00;99.90;;;;;;5041477;28;20088;-81
2023/05/26 08:01:58;;;;;;;18.10;14.05;;;20.10;99.90;;;;;;5043286;28;20087;-84
2023/05/26 08:04:24;;;;;;;22.10;12.80;;;20.10;99.90;;;;;;5054027;28;20089;-82
2023/05/26 08:06:50;;;;;;;19.20;13.70;;;20.10;99.90;;;;;;5052796;28;20025;-83
2023/05/26 08:09:16;;;;;;;23.98;13.18;;;20.20;99.90;;;;;;5052437;28;20029;-81
2023/05/26 08:11:42;;;;;;;21.13;13.88;;;;;;;;;;5050367;28;20029;-81
2023/05/26 08:14:08;;;;;;;19.50;13.40;;;20.80;99.90;;;;;;5034681;28;20029;-78
2023/05/26 08:16:34;;;;;;;22.17;13.60;;;21.00;99.90;;;;;;5048010;28;20464;-79
2023/05/26 08:19:00;;;;;;;18.30;12.73;;;;;;;;;;5053550;28;20048;-79
2023/05/26 08:21:26;;;;;;;22.63;13.07;;;;;;;;;;5053933;28;20029;-79
2023/05/26 08:23:52;;;;;;;23.08;13.50;;;;;;;;;;5053811;28;20052;-80
2023/05/26 08:26:19;;;;;;;24.70;13.27;;;;;;;;;;5053882;28;20035;-80
2023/05/26 08:28:45;;;;;;;20.98;12.95;;;;;;;;;;5053635;28;20074;-82
2023/05/26 08:31:12;;;;;;;17.75;13.23;;;;;;;;;;5052164;28;20021;-78
2023/05/26 08:33:38;;;;;;;20.63;12.45;;;;;;;;;;5053742;28;20074;-78
2023/05/26 08:36:04;;;;;;;18.58;12.52;;;;;;;;;;5052186;28;20044;-79
2023/05/26 08:38:30;;;;;;;15.45;11.98;;;;;;;;;;5052971;28;20045;-78
2023/05/26 08:40:57;;;;;;;20.73;13.85;;;;;;;;;;5053602;28;20025;-80
2023/05/26 08:43:29;;;;;;;20.95;12.85;;;;;;;;;;5052379;28;20525;-78
2023/05/26 08:45:56;;;;;;;17.33;12.60;;;;;;;;;;5053985;28;20017;-79
2023/05/26 08:48:23;;;;;;;25.85;12.10;;;;;;;;;;5053677;28;20033;-79
2023/05/26 08:50:53;;;;;;;21.35;13.00;;;;;;;;;;5051252;28;20021;-78
2023/05/26 08:53:20;;;;;;;21.77;11.65;;;;;;;;;;5049111;28;20025;-79
2023/05/26 08:55:46;;;;;;;20.20;13.07;;;;;;;;;;5056242;28;20475;-78
2023/05/26 08:58:12;;;;;;;18.55;12.35;;;;;;;;;;5039217;28;20041;-81
2023/05/26 09:00:40;;;;;;;19.38;12.52;;;;;;;;;;5044399;28;20025;-80
2023/05/26 09:03:06;;;;;;;20.17;12.00;;;;;;;;;;5052239;28;20507;-77
2023/05/26 09:05:32;;;;;;;16.75;12.15;;;;;;;;;;5057219;28;20025;-79
2023/05/26 09:07:59;;;;;;;20.17;13.48;;;;;;;;;;5057584;28;20044;-80
2023/05/26 09:10:32;;;;;;;25.33;13.65;;;;;;;;;;5056087;28;20032;-78
2023/05/26 09:13:08;;;;;;;22.85;13.40;;;;;;;;;;5057182;28;20060;-78
2023/05/26 09:15:38;;;;;;;18.00;12.82;;;;;;;;;;5044537;28;20052;-79
2023/05/26 09:18:14;;;;;;;20.02;13.07;;;;;;;;;;5049324;28;20028;-78
2023/05/26 09:20:41;;;;;;;23.90;12.73;;;;;;;;;;5057063;28;20031;-78
2023/05/26 09:23:07;;;;;;;18.88;12.00;;;;;;;;;;5055936;28;20025;-79
2023/05/26 09:25:34;;;;;;;16.35;12.98;;;;;;;;;;5055533;28;20383;-79
2023/05/26 09:28:02;;;;;;;22.67;12.02;;;;;;;;;;5055837;28;20051;-79
2023/05/26 09:30:29;;;;;;;16.70;11.25;;;;;;;;;;5055816;28;20025;-78
2023/05/26 09:32:55;;;;;;;20.17;12.68;;;;;;;;;;5056420;28;20079;-79
2023/05/26 09:35:21;;;;;;;18.83;11.75;;;;;;;;;;5055626;28;20033;-81
2023/05/26 09:37:47;;;;;;;16.75;12.65;;;;;;;;;;5055301;28;20049;-81
2023/05/26 09:40:18;;;;;;;17.20;12.07;;;;;;;;;;5056257;28;20031;-80
2023/05/26 09:42:54;;;;;;;20.33;12.98;;;;;;;;;;5055295;28;20070;-79
2023/05/26 09:45:20;;;;;;;16.02;12.98;;;;;;;;;;5055674;28;20036;-79
2023/05/26 09:47:51;;;;;;;12.23;10.32;;;;;;;;;;5055157;28;20036;-79
2023/05/26 09:50:17;;;;;;;19.27;11.80;;;;;;;;;;5056633;28;20017;-78
2023/05/26 09:52:44;;;;;;;15.95;11.57;;;;;;;;;;5038490;28;20021;-79
2023/05/26 09:55:10;;;;;;;20.15;11.40;;;;;;;;;;5054008;28;20414;-79
2023/05/26 09:57:37;;;;;;;14.35;10.02;;;;;;;;;;5040308;28;20032;-79
2023/05/26 10:00:08;;;;;;;17.40;10.02;;;;;;;;;;5049558;28;20031;-78
2023/05/26 10:02:35;;;;;;;13.50;10.32;;;;;;;;;;5038948;28;20029;-82
2023/05/26 10:05:02;;;;;;;15.30;9.73;;;;;;;;;;5055030;28;20474;-78
2023/05/26 10:07:29;;;;;;;14.50;10.35;;;;;;;;;;5054123;28;20032;-79
2023/05/26 10:09:59;;;;;;;12.32;9.60;;;;;;;;;;5056824;28;20056;-78
2023/05/26 10:12:43;;;;;;;13.30;9.93;;;;;;;;;;5054810;28;20021;-79
2023/05/26 10:15:10;;;;;;;18.20;10.27;;;;;;;;;;5054704;28;20480;-81
2023/05/26 10:17:36;;;;;;;13.93;9.15;;;;;;;;;;5054854;28;20021;-80
2023/05/26 10:20:04;;;;;;;15.35;10.07;;;;;;;;;;5055934;28;20074;-79
2023/05/26 10:22:30;;;;;;;14.55;10.38;;;;;;;;;;5054495;28;20111;-78
2023/05/26 10:25:06;;;;;;;12.40;10.02;;;;;;;;;;5044557;28;20025;-79
2023/05/26 10:27:32;;;;;;;14.13;9.98;;;;;;;;;;5043404;28;20479;-79
2023/05/26 10:30:05;;;;;;;14.10;10.35;;;;;;;;;;5055595;28;20036;-78
2023/05/26 10:32:47;;;;;;;15.48;10.63;;;;;;;;;;5055582;28;20070;-78
2023/05/26 10:35:23;;;;;;;16.98;11.60;;;;;;;;;;5055946;28;20076;-80
2023/05/26 10:37:50;;;;;;;14.35;12.02;;;;;;;;;;5053883;28;20084;-79
2023/05/26 10:40:43;;;;;;;16.50;11.30;;;;;;;;;;5034578;28;20026;-80
2023/05/26 10:43:13;;;;;;;13.88;11.20;;;;;;;;;;5015525;28;20084;-79
2023/05/26 10:45:44;;;;;;;13.13;9.98;;;;;;;;;;5054428;28;20057;-79
2023/05/26 10:48:10;;;;;;;15.10;11.63;;;;;;;;;;5055565;28;20494;-79
2023/05/26 10:50:55;;;;;;;17.35;11.45;;;;;;;;;;5054747;28;20029;-80
2023/05/26 10:53:27;;;;;;;13.70;10.75;;;;;;;;;;5048858;28;20383;-78
2023/05/26 10:56:04;;;;;;;18.35;11.63;;;;;;;;;;5055175;28;20023;-79
2023/05/26 10:58:34;;;;;;;15.98;10.63;;;;;;;;;;5054826;28;20033;-79
2023/05/26 11:01:18;;;;;;;14.55;10.45;;;;;;;;;;5055361;28;20078;-79
2023/05/26 11:03:46;;;;;;;18.70;11.55;;;;;;;;;;5047091;28;20021;-80
2023/05/26 11:06:13;;;;;;;13.48;10.85;;;;;;;;;;5039437;28;20028;-78
2023/05/26 11:08:47;;;;;;;18.15;11.50;;;;;;;;;;5053942;28;20485;-79
2023/05/26 11:11:14;;;;;;;12.63;10.55;;;;;;;;;;5053712;28;20123;-79
2023/05/26 11:13:42;;;;;;;18.25;12.13;;;;;;;;;;5053872;28;20025;-80
2023/05/26 11:16:20;;;;;;;14.52;10.73;;;;;;;;;;5053868;28;20115;-80
2023/05/26 11:18:54;;;;;;;13.52;11.00;;;;;;;;;;5053606;28;20029;-79
2023/05/26 11:21:31;;;;;;;18.05;10.98;;;;;;;;;;5053768;28;20025;-78
2023/05/26 11:23:58;;;;;;;17.77;11.30;;;;;;;;;;5054078;28;20426;-80
2023/05/26 11:26:25;;;;;;;17.48;10.95;;;;;;;;;;5054548;28;20025;-81
2023/05/26 11:28:52;;;;;;;14.20;10.35;;;;;;;;;;5053533;28;20194;-80
2023/05/26 11:31:20;;;;;;;16.63;10.20;;;;;;;;;;5053586;28;20065;-79
2023/05/26 11:33:46;;;;;;;12.55;9.63;;;;;;;;;;5053218;28;20075;-80
2023/05/26 11:36:14;;;;;;;12.70;9.73;;;;;;;;;;5053513;28;20059;-80
2023/05/26 11:38:40;;;;;;;12.75;9.27;;;;;;;;;;5054453;28;20124;-80
2023/05/26 11:41:15;;;;;;;11.10;9.70;;;;;;;;;;5053528;28;20481;-81
2023/05/26 11:43:41;;;;;;;16.05;9.52;;;;;;;;;;5054353;28;20124;-79
2023/05/26 11:46:08;;;;;;;14.50;10.07;;;;;;;;;;5052937;28;20036;-80
2023/05/26 11:48:37;;;;;;;13.05;10.65;;;;;;;;;;5054571;28;20506;-79
2023/05/26 11:51:10;;;;;;;15.35;9.98;;;;;;;;;;5048923;28;20120;-79
2023/05/26 11:53:37;;;;;;;15.20;10.02;;;;;;;;;;5036382;28;20048;-80
2023/05/26 11:56:07;;;;;;;15.82;10.05;;;;;;;;;;5050049;28;20013;-79
2023/05/26 11:58:56;;;;;;;12.13;9.98;;;;;;;;;;5042687;28;20108;-80
2023/05/26 12:01:22;;;;;;;12.85;10.05;;;;;;;;;;5013142;28;20499;-81
2023/05/26 12:03:52;;;;;;;14.82;10.68;;;;;;;;;;5031334;28;20026;-81
2023/05/26 12:06:18;;;;;;;13.30;10.73;;;;;;;;;;5047509;28;20053;-80
2023/05/26 12:08:44;;;;;;;17.88;10.95;;;;;;;;;;5052627;28;20052;-81
2023/05/26 12:11:17;;;;;;;12.63;10.45;;;;;;;;;;5054366;28;20017;-80
2023/05/26 12:13:43;;;;;;;12.55;10.77;;;;;;;;;;5053451;28;20032;-79
2023/05/26 12:16:20;;;;;;;12.98;11.48;;;;;;;;;;5039980;28;20605;-79
2023/05/26 12:18:46;;;;;;;12.10;10.70;;;;;;;;;;5053629;28;20029;-82
2023/05/26 12:21:12;;;;;;;16.83;10.63;;;;;;;;;;5053835;28;20044;-81
2023/05/26 12:23:38;;;;;;;19.27;10.10;;;;;;;;;;5053871;28;20029;-81
2023/05/26 12:26:18;;;;;;;14.52;11.00;;;;;;;;;;5053864;28;20017;-81
2023/05/26 12:28:44;;;;;;;11.80;9.88;;;;;;;;;;5053372;28;20108;-81
2023/05/26 12:31:11;;;;;;;16.65;11.02;;;;;;;;;;5052520;28;20021;-82
2023/05/26 12:33:38;;;;;;;11.63;10.02;;;;;;;;;;5043621;28;20052;-81
2023/05/26 12:36:05;;;;;;;15.18;10.43;;;;;;;;;;5038248;28;20142;-79
2023/05/26 12:38:41;;;;;;;15.10;11.00;;;;;;;;;;5052010;28;20384;-80
2023/05/26 12:41:09;;;;;;;17.20;9.98;;;;;;;;;;5053293;28;20463;-80
2023/05/26 12:43:35;;;;;;;16.27;10.13;;;;;;;;;;5053461;28;20056;-81
2023/05/26 12:46:02;;;;;;;13.23;10.10;;;;;;;;;;5053404;28;20383;-81
2023/05/26 12:48:29;;;;;;;16.63;9.15;;;;;;;;;;5053340;28;20040;-80
2023/05/26 12:50:55;;;;;;;14.65;10.80;;;;;;;;;;5050489;28;20460;-80
2023/05/26 12:53:22;;;;;;;12.40;10.70;;;;;;;;;;5042359;28;20031;-80
2023/05/26 12:55:48;;;;;;;13.98;12.50;;;;;;;;;;5053505;28;20342;-82
2023/05/26 12:58:14;;;;;;;14.57;10.70;;;;;;;;;;5053412;28;20505;-81
2023/05/26 13:00:40;;;;;;;14.13;10.73;;;;;;;;;;5052163;28;20025;-81
2023/05/26 13:03:07;;;;;;;17.67;11.48;;;;;;;;;;5052156;28;20035;-81
2023/05/26 13:05:33;;;;;;;19.13;10.85;;;;;;;;;;5035810;28;20472;-80
2023/05/26 13:07:59;;;;;;;16.38;12.27;;;;;;;;;;5048901;28;20037;-80